sensor_id;sensor_type;location;lat;lon;timestamp;temperature;humidity
22923;DHT22;11627;51.322;22.816;2023-02-10T00:01:25;-2.10;1.00
22923;DHT22;11627;51.322;22.816;2023-02-10T00:03:52;-2.10;1.00
22923;DHT22;11627;51.322;22.816;2023-02-10T00:06:18;-2.00;1.00
22923;DHT22;11627;51.322;22.816;2023-02-10T00:08:53;-2.10;1.00
22923;DHT22;11627;51.322;22.816;2023-02-10T00:11:19;-2.10;1.00
22923;DHT22;11627;51.322;22.816;2023-02-10T00:13:45;-2.10;1.00
22923;DHT22;11627;51.322;22.816;2023-02-10T00:16:14;-2.10;1.00
22923;DHT22;11627;51.322;22.816;2023-02-10T00:18:41;-2.20;1.00
22923;DHT22;11627;51.322;22.816;2023-02-10T00:21:09;-2.20;1.00
22923;DHT22;11627;51.322;22.816;2023-02-10T00:23:36;-2.20;1.00
22923;DHT22;11627;51.322;22.816;2023-02-10T00:26:04;-2.20;1.00
22923;DHT22;11627;51.322;22.816;2023-02-10T00:28:30;-2.20;1.00
22923;DHT22;11627;51.322;22.816;2023-02-10T00:30:58;-2.20;1.00
22923;DHT22;11627;51.322;22.816;2023-02-10T00:33:25;-2.20;1.00
22923;DHT22;11627;51.322;22.816;2023-02-10T00:35:50;-2.30;1.00
22923;DHT22;11627;51.322;22.816;2023-02-10T00:38:16;-2.40;1.00
22923;DHT22;11627;51.322;22.816;2023-02-10T00:40:42;-2.40;1.00
22923;DHT22;11627;51.322;22.816;2023-02-10T00:43:08;-2.40;1.00
22923;DHT22;11627;51.322;22.816;2023-02-10T00:45:34;-2.40;1.00
22923;DHT22;11627;51.322;22.816;2023-02-10T00:48:00;-2.50;1.00
22923;DHT22;11627;51.322;22.816;2023-02-10T00:50:26;-2.50;1.00
22923;DHT22;11627;51.322;22.816;2023-02-10T00:52:51;-2.60;1.00
22923;DHT22;11627;51.322;22.816;2023-02-10T00:55:17;-2.60;1.00
22923;DHT22;11627;51.322;22.816;2023-02-10T00:57:42;-2.50;1.00
22923;DHT22;11627;51.322;22.816;2023-02-10T01:00:08;-2.60;1.00
22923;DHT22;11627;51.322;22.816;2023-02-10T01:02:35;-2.60;1.00
22923;DHT22;11627;51.322;22.816;2023-02-10T01:05:02;-2.50;1.00
22923;DHT22;11627;51.322;22.816;2023-02-10T01:07:29;-2.50;1.00
22923;DHT22;11627;51.322;22.816;2023-02-10T01:09:55;-1.70;1.00
22923;DHT22;11627;51.322;22.816;2023-02-10T01:12:20;-2.50;1.00
22923;DHT22;11627;51.322;22.816;2023-02-10T01:14:46;-2.40;1.00
22923;DHT22;11627;51.322;22.816;2023-02-10T01:17:12;-2.40;1.00
22923;DHT22;11627;51.322;22.816;2023-02-10T01:19:39;-2.40;1.00
22923;DHT22;11627;51.322;22.816;2023-02-10T01:22:06;-2.40;1.00
22923;DHT22;11627;51.322;22.816;2023-02-10T01:24:31;-2.40;1.00
22923;DHT22;11627;51.322;22.816;2023-02-10T01:26:57;-2.40;1.00
22923;DHT22;11627;51.322;22.816;2023-02-10T01:29:22;-2.40;1.00
22923;DHT22;11627;51.322;22.816;2023-02-10T01:31:49;-2.40;1.00
22923;DHT22;11627;51.322;22.816;2023-02-10T01:34:15;-2.40;1.00
22923;DHT22;11627;51.322;22.816;2023-02-10T01:36:40;-2.30;1.00
22923;DHT22;11627;51.322;22.816;2023-02-10T01:39:07;-2.30;1.00
22923;DHT22;11627;51.322;22.816;2023-02-10T01:41:35;-2.30;1.00
22923;DHT22;11627;51.322;22.816;2023-02-10T01:46:53;-2.30;1.00
22923;DHT22;11627;51.322;22.816;2023-02-10T01:49:23;-2.30;1.00
22923;DHT22;11627;51.322;22.816;2023-02-10T01:52:16;-2.20;1.00
22923;DHT22;11627;51.322;22.816;2023-02-10T01:54:46;-2.30;1.00
22923;DHT22;11627;51.322;22.816;2023-02-10T01:57:16;-2.30;1.00
22923;DHT22;11627;51.322;22.816;2023-02-10T01:59:42;-2.30;1.00
22923;DHT22;11627;51.322;22.816;2023-02-10T02:02:10;-2.20;1.00
22923;DHT22;11627;51.322;22.816;2023-02-10T02:04:54;-2.30;1.00
22923;DHT22;11627;51.322;22.816;2023-02-10T02:07:27;-2.30;1.00
22923;DHT22;11627;51.322;22.816;2023-02-10T02:09:55;-2.30;1.00
22923;DHT22;11627;51.322;22.816;2023-02-10T02:15:22;-2.20;1.00
22923;DHT22;11627;51.322;22.816;2023-02-10T02:18:01;-2.20;1.00
22923;DHT22;11627;51.322;22.816;2023-02-10T02:34:15;-2.40;1.00
22923;DHT22;11627;51.322;22.816;2023-02-10T02:37:28;-2.50;1.00
22923;DHT22;11627;51.322;22.816;2023-02-10T02:39:53;-2.50;1.00
22923;DHT22;11627;51.322;22.816;2023-02-10T02:42:23;-2.60;1.00
22923;DHT22;11627;51.322;22.816;2023-02-10T02:44:54;-2.60;1.00
22923;DHT22;11627;51.322;22.816;2023-02-10T02:47:55;-2.60;1.00
22923;DHT22;11627;51.322;22.816;2023-02-10T02:50:36;-2.70;1.00
22923;DHT22;11627;51.322;22.816;2023-02-10T02:58:47;-2.70;1.00
22923;DHT22;11627;51.322;22.816;2023-02-10T03:01:22;-2.80;1.00
22923;DHT22;11627;51.322;22.816;2023-02-10T03:03:52;-2.70;1.00
22923;DHT22;11627;51.322;22.816;2023-02-10T03:06:19;-2.70;1.00
22923;DHT22;11627;51.322;22.816;2023-02-10T03:08:45;-2.70;1.00
22923;DHT22;11627;51.322;22.816;2023-02-10T03:11:10;-2.70;1.00
22923;DHT22;11627;51.322;22.816;2023-02-10T03:13:36;-2.70;1.00
22923;DHT22;11627;51.322;22.816;2023-02-10T03:16:04;-2.70;1.00
22923;DHT22;11627;51.322;22.816;2023-02-10T03:18:30;-2.70;1.00
22923;DHT22;11627;51.322;22.816;2023-02-10T03:20:55;-2.80;1.00
22923;DHT22;11627;51.322;22.816;2023-02-10T03:23:21;-2.80;1.00
22923;DHT22;11627;51.322;22.816;2023-02-10T03:25:47;-2.80;1.00
22923;DHT22;11627;51.322;22.816;2023-02-10T03:28:13;-2.90;1.00
22923;DHT22;11627;51.322;22.816;2023-02-10T03:30:39;-2.90;1.00
22923;DHT22;11627;51.322;22.816;2023-02-10T03:33:09;-2.00;1.00
22923;DHT22;11627;51.322;22.816;2023-02-10T03:35:38;-3.00;1.00
22923;DHT22;11627;51.322;22.816;2023-02-10T03:38:06;-3.00;1.00
22923;DHT22;11627;51.322;22.816;2023-02-10T03:40:32;-3.00;1.00
22923;DHT22;11627;51.322;22.816;2023-02-10T03:42:59;-3.00;1.00
22923;DHT22;11627;51.322;22.816;2023-02-10T03:45:25;-3.00;1.00
22923;DHT22;11627;51.322;22.816;2023-02-10T03:47:51;-3.10;1.00
22923;DHT22;11627;51.322;22.816;2023-02-10T03:50:17;-3.20;1.00
22923;DHT22;11627;51.322;22.816;2023-02-10T03:52:44;-3.20;1.00
22923;DHT22;11627;51.322;22.816;2023-02-10T03:55:10;-3.20;1.00
22923;DHT22;11627;51.322;22.816;2023-02-10T03:57:40;-3.20;1.00
22923;DHT22;11627;51.322;22.816;2023-02-10T04:00:07;-3.30;1.00
22923;DHT22;11627;51.322;22.816;2023-02-10T04:02:33;-3.30;1.00
22923;DHT22;11627;51.322;22.816;2023-02-10T04:04:59;-3.40;1.00
22923;DHT22;11627;51.322;22.816;2023-02-10T04:07:26;-3.50;1.00
22923;DHT22;11627;51.322;22.816;2023-02-10T04:09:51;-3.50;1.00
22923;DHT22;11627;51.322;22.816;2023-02-10T04:12:18;-3.50;1.00
22923;DHT22;11627;51.322;22.816;2023-02-10T04:14:45;-3.50;1.00
22923;DHT22;11627;51.322;22.816;2023-02-10T04:17:10;-3.50;1.00
22923;DHT22;11627;51.322;22.816;2023-02-10T04:19:37;-3.60;1.00
22923;DHT22;11627;51.322;22.816;2023-02-10T04:22:03;-3.60;1.00
22923;DHT22;11627;51.322;22.816;2023-02-10T04:24:29;-3.60;1.00
22923;DHT22;11627;51.322;22.816;2023-02-10T04:26:54;-3.60;1.00
22923;DHT22;11627;51.322;22.816;2023-02-10T04:29:21;-3.60;1.00
22923;DHT22;11627;51.322;22.816;2023-02-10T04:31:48;-3.60;1.00
22923;DHT22;11627;51.322;22.816;2023-02-10T04:34:14;-3.60;1.00
22923;DHT22;11627;51.322;22.816;2023-02-10T04:36:39;-3.70;1.00
22923;DHT22;11627;51.322;22.816;2023-02-10T04:39:05;-3.10;1.00
22923;DHT22;11627;51.322;22.816;2023-02-10T04:41:31;-3.70;1.00
22923;DHT22;11627;51.322;22.816;2023-02-10T04:43:56;-3.70;1.00
22923;DHT22;11627;51.322;22.816;2023-02-10T04:46:22;-3.70;1.00
22923;DHT22;11627;51.322;22.816;2023-02-10T04:48:47;-3.80;1.00
22923;DHT22;11627;51.322;22.816;2023-02-10T04:51:13;-3.70;1.00
22923;DHT22;11627;51.322;22.816;2023-02-10T04:53:40;-3.80;1.00
22923;DHT22;11627;51.322;22.816;2023-02-10T04:56:06;-3.70;1.00
22923;DHT22;11627;51.322;22.816;2023-02-10T04:58:33;-3.80;1.00
22923;DHT22;11627;51.322;22.816;2023-02-10T05:00:58;-3.90;1.00
22923;DHT22;11627;51.322;22.816;2023-02-10T05:03:25;-3.90;1.00
22923;DHT22;11627;51.322;22.816;2023-02-10T05:05:52;-3.90;1.00
22923;DHT22;11627;51.322;22.816;2023-02-10T05:08:19;-3.90;1.00
22923;DHT22;11627;51.322;22.816;2023-02-10T05:10:51;-3.90;1.00
22923;DHT22;11627;51.322;22.816;2023-02-10T05:13:17;-3.90;1.00
22923;DHT22;11627;51.322;22.816;2023-02-10T05:15:46;-3.90;1.00
22923;DHT22;11627;51.322;22.816;2023-02-10T05:18:12;-3.90;1.00
22923;DHT22;11627;51.322;22.816;2023-02-10T05:20:37;-3.90;1.00
22923;DHT22;11627;51.322;22.816;2023-02-10T05:23:03;-4.00;1.00
22923;DHT22;11627;51.322;22.816;2023-02-10T05:25:28;-3.90;1.00
22923;DHT22;11627;51.322;22.816;2023-02-10T05:27:54;-3.90;1.00
22923;DHT22;11627;51.322;22.816;2023-02-10T05:30:20;-4.00;1.00
22923;DHT22;11627;51.322;22.816;2023-02-10T05:32:45;-3.90;1.00
22923;DHT22;11627;51.322;22.816;2023-02-10T05:35:12;-3.90;1.00
22923;DHT22;11627;51.322;22.816;2023-02-10T05:37:38;-3.90;1.00
22923;DHT22;11627;51.322;22.816;2023-02-10T05:40:04;-3.90;1.00
22923;DHT22;11627;51.322;22.816;2023-02-10T05:42:30;-3.90;1.00
22923;DHT22;11627;51.322;22.816;2023-02-10T05:44:56;-4.00;1.00
22923;DHT22;11627;51.322;22.816;2023-02-10T05:47:22;-4.00;1.00
22923;DHT22;11627;51.322;22.816;2023-02-10T05:49:49;-4.00;1.00
22923;DHT22;11627;51.322;22.816;2023-02-10T05:52:15;-3.90;1.00
22923;DHT22;11627;51.322;22.816;2023-02-10T05:54:41;-3.90;1.00
22923;DHT22;11627;51.322;22.816;2023-02-10T05:57:07;-3.90;1.00
22923;DHT22;11627;51.322;22.816;2023-02-10T05:59:32;-3.90;1.00
22923;DHT22;11627;51.322;22.816;2023-02-10T06:01:58;-3.90;1.00
22923;DHT22;11627;51.322;22.816;2023-02-10T06:04:24;-3.90;1.00
22923;DHT22;11627;51.322;22.816;2023-02-10T06:06:51;-3.90;1.00
22923;DHT22;11627;51.322;22.816;2023-02-10T06:09:17;-3.90;1.00
22923;DHT22;11627;51.322;22.816;2023-02-10T06:11:42;-3.90;1.00
22923;DHT22;11627;51.322;22.816;2023-02-10T06:14:10;-3.90;1.00
22923;DHT22;11627;51.322;22.816;2023-02-10T06:16:36;-3.90;1.00
22923;DHT22;11627;51.322;22.816;2023-02-10T06:19:01;-3.90;1.00
22923;DHT22;11627;51.322;22.816;2023-02-10T06:21:28;-3.90;1.00
22923;DHT22;11627;51.322;22.816;2023-02-10T06:23:54;-3.90;1.00
22923;DHT22;11627;51.322;22.816;2023-02-10T06:26:20;-3.90;1.00
22923;DHT22;11627;51.322;22.816;2023-02-10T06:28:46;-3.80;1.00
22923;DHT22;11627;51.322;22.816;2023-02-10T06:31:11;-3.80;1.00
22923;DHT22;11627;51.322;22.816;2023-02-10T06:33:37;-3.80;1.00
22923;DHT22;11627;51.322;22.816;2023-02-10T06:36:04;-3.70;1.00
22923;DHT22;11627;51.322;22.816;2023-02-10T06:38:32;-3.70;1.00
22923;DHT22;11627;51.322;22.816;2023-02-10T06:40:58;-3.70;1.00
22923;DHT22;11627;51.322;22.816;2023-02-10T06:43:25;-3.70;1.00
22923;DHT22;11627;51.322;22.816;2023-02-10T06:45:51;-3.60;1.00
22923;DHT22;11627;51.322;22.816;2023-02-10T06:48:17;-3.60;1.00
22923;DHT22;11627;51.322;22.816;2023-02-10T06:50:44;-3.60;1.00
22923;DHT22;11627;51.322;22.816;2023-02-10T06:53:09;-3.50;1.00
22923;DHT22;11627;51.322;22.816;2023-02-10T06:55:35;-3.50;1.00
22923;DHT22;11627;51.322;22.816;2023-02-10T06:58:02;-3.50;1.00
22923;DHT22;11627;51.322;22.816;2023-02-10T07:00:28;-3.40;1.00
22923;DHT22;11627;51.322;22.816;2023-02-10T07:02:54;-3.40;1.00
22923;DHT22;11627;51.322;22.816;2023-02-10T07:05:20;-3.30;1.00
22923;DHT22;11627;51.322;22.816;2023-02-10T07:07:47;-3.30;1.00
22923;DHT22;11627;51.322;22.816;2023-02-10T07:10:14;-3.30;1.00
22923;DHT22;11627;51.322;22.816;2023-02-10T07:12:40;-3.40;1.00
22923;DHT22;11627;51.322;22.816;2023-02-10T07:15:06;-3.30;1.00
22923;DHT22;11627;51.322;22.816;2023-02-10T07:17:32;-3.30;1.00
22923;DHT22;11627;51.322;22.816;2023-02-10T07:19:58;-3.30;1.00
22923;DHT22;11627;51.322;22.816;2023-02-10T07:22:23;-3.20;1.00
22923;DHT22;11627;51.322;22.816;2023-02-10T07:24:50;-3.20;1.00
22923;DHT22;11627;51.322;22.816;2023-02-10T07:27:17;-3.10;1.00
22923;DHT22;11627;51.322;22.816;2023-02-10T07:29:42;-3.10;1.00
22923;DHT22;11627;51.322;22.816;2023-02-10T07:32:08;-3.10;1.00
22923;DHT22;11627;51.322;22.816;2023-02-10T07:34:34;-3.00;1.00
22923;DHT22;11627;51.322;22.816;2023-02-10T07:37:01;-3.00;1.00
22923;DHT22;11627;51.322;22.816;2023-02-10T07:39:27;-3.00;1.00
22923;DHT22;11627;51.322;22.816;2023-02-10T07:41:53;-2.90;1.00
22923;DHT22;11627;51.322;22.816;2023-02-10T07:44:18;-2.80;1.00
22923;DHT22;11627;51.322;22.816;2023-02-10T07:46:48;-2.70;1.00
22923;DHT22;11627;51.322;22.816;2023-02-10T07:49:15;-2.60;1.00
22923;DHT22;11627;51.322;22.816;2023-02-10T07:51:40;-2.50;1.00
22923;DHT22;11627;51.322;22.816;2023-02-10T07:54:08;-2.40;1.00
22923;DHT22;11627;51.322;22.816;2023-02-10T07:56:35;-2.40;1.00
22923;DHT22;11627;51.322;22.816;2023-02-10T07:59:00;-2.30;1.00
22923;DHT22;11627;51.322;22.816;2023-02-10T08:01:26;-2.20;1.00
22923;DHT22;11627;51.322;22.816;2023-02-10T08:03:52;-2.10;1.00
22923;DHT22;11627;51.322;22.816;2023-02-10T08:06:21;-2.10;99.90
22923;DHT22;11627;51.322;22.816;2023-02-10T08:08:48;-2.10;1.00
22923;DHT22;11627;51.322;22.816;2023-02-10T08:11:15;-1.90;99.90
22923;DHT22;11627;51.322;22.816;2023-02-10T08:13:41;-1.80;99.90
22923;DHT22;11627;51.322;22.816;2023-02-10T08:16:09;-1.70;99.90
22923;DHT22;11627;51.322;22.816;2023-02-10T08:18:37;-1.70;99.90
22923;DHT22;11627;51.322;22.816;2023-02-10T08:21:05;-1.70;99.90
22923;DHT22;11627;51.322;22.816;2023-02-10T08:23:31;-1.70;99.90
22923;DHT22;11627;51.322;22.816;2023-02-10T08:25:57;-1.50;99.90
22923;DHT22;11627;51.322;22.816;2023-02-10T08:28:22;-1.40;99.90
22923;DHT22;11627;51.322;22.816;2023-02-10T08:30:49;-1.40;99.90
22923;DHT22;11627;51.322;22.816;2023-02-10T08:33:15;-1.30;99.90
22923;DHT22;11627;51.322;22.816;2023-02-10T08:35:41;-1.40;99.90
22923;DHT22;11627;51.322;22.816;2023-02-10T08:38:08;-1.30;99.90
22923;DHT22;11627;51.322;22.816;2023-02-10T08:40:36;-1.30;99.90
22923;DHT22;11627;51.322;22.816;2023-02-10T08:43:02;-1.30;99.90
22923;DHT22;11627;51.322;22.816;2023-02-10T08:45:28;-1.10;99.90
22923;DHT22;11627;51.322;22.816;2023-02-10T08:47:55;-1.10;99.90
22923;DHT22;11627;51.322;22.816;2023-02-10T08:50:22;-1.10;99.90
22923;DHT22;11627;51.322;22.816;2023-02-10T08:52:47;-1.00;99.90
22923;DHT22;11627;51.322;22.816;2023-02-10T08:55:13;-1.00;99.90
22923;DHT22;11627;51.322;22.816;2023-02-10T08:57:38;-0.90;99.90
22923;DHT22;11627;51.322;22.816;2023-02-10T09:00:05;-1.00;99.90
22923;DHT22;11627;51.322;22.816;2023-02-10T09:02:31;-0.90;99.90
22923;DHT22;11627;51.322;22.816;2023-02-10T09:04:57;-0.90;99.90
22923;DHT22;11627;51.322;22.816;2023-02-10T09:07:24;-0.90;99.90
22923;DHT22;11627;51.322;22.816;2023-02-10T09:09:50;-0.90;99.90
22923;DHT22;11627;51.322;22.816;2023-02-10T09:12:15;-0.90;99.90
22923;DHT22;11627;51.322;22.816;2023-02-10T09:14:41;-0.90;99.90
22923;DHT22;11627;51.322;22.816;2023-02-10T09:17:07;-0.90;99.90
22923;DHT22;11627;51.322;22.816;2023-02-10T09:19:37;-0.80;99.90
22923;DHT22;11627;51.322;22.816;2023-02-10T09:22:04;-0.80;99.90
22923;DHT22;11627;51.322;22.816;2023-02-10T09:24:31;-0.80;99.90
22923;DHT22;11627;51.322;22.816;2023-02-10T09:26:57;-0.80;99.90
22923;DHT22;11627;51.322;22.816;2023-02-10T09:29:25;-0.80;99.90
22923;DHT22;11627;51.322;22.816;2023-02-10T09:31:52;-0.70;99.90
22923;DHT22;11627;51.322;22.816;2023-02-10T09:34:17;-0.60;1.00
22923;DHT22;11627;51.322;22.816;2023-02-10T09:36:44;-0.50;99.90
22923;DHT22;11627;51.322;22.816;2023-02-10T09:39:10;-0.50;1.00
22923;DHT22;11627;51.322;22.816;2023-02-10T09:49:54;-0.40;1.00
22923;DHT22;11627;51.322;22.816;2023-02-10T09:54:54;-0.40;99.90
22923;DHT22;11627;51.322;22.816;2023-02-10T09:57:44;-0.30;1.00
22923;DHT22;11627;51.322;22.816;2023-02-10T10:00:33;-0.40;1.00
22923;DHT22;11627;51.322;22.816;2023-02-10T10:03:03;-0.30;1.00
22923;DHT22;11627;51.322;22.816;2023-02-10T10:05:38;-0.30;1.00
22923;DHT22;11627;51.322;22.816;2023-02-10T10:10:49;-0.30;1.00
22923;DHT22;11627;51.322;22.816;2023-02-10T10:13:22;-0.40;1.00
22923;DHT22;11627;51.322;22.816;2023-02-10T10:19:03;-0.40;1.00
22923;DHT22;11627;51.322;22.816;2023-02-10T10:27:42;-0.40;1.00
22923;DHT22;11627;51.322;22.816;2023-02-10T10:30:18;-0.40;1.00
22923;DHT22;11627;51.322;22.816;2023-02-10T10:32:52;-0.40;1.00
22923;DHT22;11627;51.322;22.816;2023-02-10T10:35:39;-0.40;1.00
22923;DHT22;11627;51.322;22.816;2023-02-10T10:38:18;-0.20;1.00
22923;DHT22;11627;51.322;22.816;2023-02-10T10:40:45;-0.20;1.00
22923;DHT22;11627;51.322;22.816;2023-02-10T10:43:17;-0.30;1.00
22923;DHT22;11627;51.322;22.816;2023-02-10T10:45:52;-0.20;1.00
22923;DHT22;11627;51.322;22.816;2023-02-10T10:48:24;-0.30;99.90
22923;DHT22;11627;51.322;22.816;2023-02-10T10:50:55;-0.20;1.00
22923;DHT22;11627;51.322;22.816;2023-02-10T10:53:46;-0.20;99.90
22923;DHT22;11627;51.322;22.816;2023-02-10T10:58:58;-0.20;1.00
22923;DHT22;11627;51.322;22.816;2023-02-10T11:01:37;-0.10;1.00
22923;DHT22;11627;51.322;22.816;2023-02-10T11:04:07;-0.10;1.00
22923;DHT22;11627;51.322;22.816;2023-02-10T11:06:37;-0.10;1.00
22923;DHT22;11627;51.322;22.816;2023-02-10T11:09:06;-0.20;1.00
22923;DHT22;11627;51.322;22.816;2023-02-10T11:11:35;0.00;1.00
22923;DHT22;11627;51.322;22.816;2023-02-10T11:14:03;0.00;1.00
22923;DHT22;11627;51.322;22.816;2023-02-10T11:16:41;0.00;1.00
22923;DHT22;11627;51.322;22.816;2023-02-10T11:19:25;0.10;1.00
22923;DHT22;11627;51.322;22.816;2023-02-10T11:21:51;0.20;1.00
22923;DHT22;11627;51.322;22.816;2023-02-10T11:24:27;0.20;1.00
22923;DHT22;11627;51.322;22.816;2023-02-10T11:27:35;0.30;1.00
22923;DHT22;11627;51.322;22.816;2023-02-10T11:29:57;0.30;1.00
22923;DHT22;11627;51.322;22.816;2023-02-10T11:32:33;0.40;1.00
22923;DHT22;11627;51.322;22.816;2023-02-10T11:35:02;0.50;1.00
22923;DHT22;11627;51.322;22.816;2023-02-10T11:37:38;0.50;1.00
22923;DHT22;11627;51.322;22.816;2023-02-10T11:40:17;0.60;1.00
22923;DHT22;11627;51.322;22.816;2023-02-10T11:42:47;0.90;1.00
22923;DHT22;11627;51.322;22.816;2023-02-10T11:45:25;0.70;1.00
22923;DHT22;11627;51.322;22.816;2023-02-10T11:48:18;0.70;1.00
22923;DHT22;11627;51.322;22.816;2023-02-10T11:50:44;0.60;1.00
22923;DHT22;11627;51.322;22.816;2023-02-10T11:53:36;0.60;1.00
22923;DHT22;11627;51.322;22.816;2023-02-10T11:56:17;0.70;1.00
22923;DHT22;11627;51.322;22.816;2023-02-10T11:59:12;0.70;1.00
22923;DHT22;11627;51.322;22.816;2023-02-10T12:01:53;0.70;1.00
22923;DHT22;11627;51.322;22.816;2023-02-10T12:04:43;0.70;1.00
22923;DHT22;11627;51.322;22.816;2023-02-10T12:12:41;0.70;1.00
22923;DHT22;11627;51.322;22.816;2023-02-10T12:15:34;0.70;1.00
22923;DHT22;11627;51.322;22.816;2023-02-10T12:21:12;0.80;1.00
22923;DHT22;11627;51.322;22.816;2023-02-10T12:26:53;1.00;1.00
22923;DHT22;11627;51.322;22.816;2023-02-10T12:29:39;1.00;1.00
22923;DHT22;11627;51.322;22.816;2023-02-10T12:40:34;0.90;1.00
22923;DHT22;11627;51.322;22.816;2023-02-10T12:46:17;1.00;1.00
22923;DHT22;11627;51.322;22.816;2023-02-10T12:49:09;0.90;1.00
22923;DHT22;11627;51.322;22.816;2023-02-10T12:52:42;0.90;1.00
22923;DHT22;11627;51.322;22.816;2023-02-10T12:57:29;1.00;1.00
22923;DHT22;11627;51.322;22.816;2023-02-10T13:00:08;0.90;1.00
22923;DHT22;11627;51.322;22.816;2023-02-10T13:03:15;0.90;1.00
22923;DHT22;11627;51.322;22.816;2023-02-10T13:05:59;0.90;1.00
22923;DHT22;11627;51.322;22.816;2023-02-10T13:08:36;1.00;1.00
22923;DHT22;11627;51.322;22.816;2023-02-10T13:11:14;1.00;1.00
22923;DHT22;11627;51.322;22.816;2023-02-10T13:13:46;1.00;1.00
22923;DHT22;11627;51.322;22.816;2023-02-10T13:16:18;0.90;1.00
22923;DHT22;11627;51.322;22.816;2023-02-10T13:24:34;1.00;1.00
22923;DHT22;11627;51.322;22.816;2023-02-10T13:30:32;1.10;1.00
22923;DHT22;11627;51.322;22.816;2023-02-10T13:35:58;1.10;1.00
22923;DHT22;11627;51.322;22.816;2023-02-10T13:38:28;1.00;1.00
22923;DHT22;11627;51.322;22.816;2023-02-10T13:40:58;1.10;1.00
22923;DHT22;11627;51.322;22.816;2023-02-10T13:43:46;1.00;1.00
22923;DHT22;11627;51.322;22.816;2023-02-10T13:46:41;1.10;1.00
22923;DHT22;11627;51.322;22.816;2023-02-10T13:49:16;1.10;1.00
22923;DHT22;11627;51.322;22.816;2023-02-10T13:51:42;1.10;1.00
22923;DHT22;11627;51.322;22.816;2023-02-10T13:54:30;1.00;1.00
22923;DHT22;11627;51.322;22.816;2023-02-10T13:56:57;1.10;1.00
22923;DHT22;11627;51.322;22.816;2023-02-10T13:59:36;1.10;1.00
22923;DHT22;11627;51.322;22.816;2023-02-10T14:02:17;1.10;1.00
22923;DHT22;11627;51.322;22.816;2023-02-10T14:04:51;1.10;1.00
22923;DHT22;11627;51.322;22.816;2023-02-10T14:10:26;1.10;2.60
22923;DHT22;11627;51.322;22.816;2023-02-10T14:13:26;1.10;5.50
22923;DHT22;11627;51.322;22.816;2023-02-10T14:16:29;1.00;6.40
22923;DHT22;11627;51.322;22.816;2023-02-10T14:19:03;1.10;2.10
22923;DHT22;11627;51.322;22.816;2023-02-10T14:21:43;1.10;1.00
22923;DHT22;11627;51.322;22.816;2023-02-10T14:24:22;1.10;1.80
22923;DHT22;11627;51.322;22.816;2023-02-10T14:26:49;1.00;7.50
22923;DHT22;11627;51.322;22.816;2023-02-10T14:29:19;1.00;1.80
22923;DHT22;11627;51.322;22.816;2023-02-10T14:31:49;1.00;2.70
22923;DHT22;11627;51.322;22.816;2023-02-10T14:34:28;1.10;5.10
22923;DHT22;11627;51.322;22.816;2023-02-10T14:36:57;1.00;9.10
22923;DHT22;11627;51.322;22.816;2023-02-10T14:39:24;1.00;13.80
22923;DHT22;11627;51.322;22.816;2023-02-10T14:41:52;1.00;14.10
22923;DHT22;11627;51.322;22.816;2023-02-10T14:47:24;1.00;10.30
22923;DHT22;11627;51.322;22.816;2023-02-10T14:49:54;1.10;14.00
22923;DHT22;11627;51.322;22.816;2023-02-10T14:52:32;1.10;22.00
22923;DHT22;11627;51.322;22.816;2023-02-10T14:54:58;1.00;16.70
22923;DHT22;11627;51.322;22.816;2023-02-10T14:57:26;1.80;22.90
22923;DHT22;11627;51.322;22.816;2023-02-10T14:59:57;1.00;28.60
22923;DHT22;11627;51.322;22.816;2023-02-10T15:02:28;1.00;32.30
22923;DHT22;11627;51.322;22.816;2023-02-10T15:04:57;1.00;29.10
22923;DHT22;11627;51.322;22.816;2023-02-10T15:07:37;1.00;35.10
22923;DHT22;11627;51.322;22.816;2023-02-10T15:10:43;1.00;35.60
22923;DHT22;11627;51.322;22.816;2023-02-10T15:13:09;0.90;46.60
22923;DHT22;11627;51.322;22.816;2023-02-10T15:15:39;0.90;53.90
22923;DHT22;11627;51.322;22.816;2023-02-10T15:18:22;0.80;57.80
22923;DHT22;11627;51.322;22.816;2023-02-10T15:20:57;0.80;53.80
22923;DHT22;11627;51.322;22.816;2023-02-10T15:23:24;0.80;53.60
22923;DHT22;11627;51.322;22.816;2023-02-10T15:26:05;0.90;57.10
22923;DHT22;11627;51.322;22.816;2023-02-10T15:28:31;0.90;58.10
22923;DHT22;11627;51.322;22.816;2023-02-10T15:31:05;0.90;60.80
22923;DHT22;11627;51.322;22.816;2023-02-10T15:33:49;0.90;63.10
22923;DHT22;11627;51.322;22.816;2023-02-10T15:38:50;0.80;62.50
22923;DHT22;11627;51.322;22.816;2023-02-10T15:41:43;0.70;66.10
22923;DHT22;11627;51.322;22.816;2023-02-10T15:46:51;0.80;60.50
22923;DHT22;11627;51.322;22.816;2023-02-10T15:49:19;0.80;63.50
22923;DHT22;11627;51.322;22.816;2023-02-10T15:51:54;0.80;60.70
22923;DHT22;11627;51.322;22.816;2023-02-10T15:54:24;0.80;62.20
22923;DHT22;11627;51.322;22.816;2023-02-10T15:57:00;0.80;53.20
22923;DHT22;11627;51.322;22.816;2023-02-10T15:59:26;0.80;55.00
22923;DHT22;11627;51.322;22.816;2023-02-10T16:02:00;0.90;53.30
22923;DHT22;11627;51.322;22.816;2023-02-10T16:04:27;0.90;44.80
22923;DHT22;11627;51.322;22.816;2023-02-10T16:06:58;0.90;47.40
22923;DHT22;11627;51.322;22.816;2023-02-10T16:09:24;0.90;45.80
22923;DHT22;11627;51.322;22.816;2023-02-10T16:11:50;0.90;45.70
22923;DHT22;11627;51.322;22.816;2023-02-10T16:14:15;2.10;46.40
22923;DHT22;11627;51.322;22.816;2023-02-10T16:16:45;0.90;45.80
22923;DHT22;11627;51.322;22.816;2023-02-10T16:19:14;1.00;40.00
22923;DHT22;11627;51.322;22.816;2023-02-10T16:21:41;0.90;45.60
22923;DHT22;11627;51.322;22.816;2023-02-10T16:24:14;1.00;46.60
22923;DHT22;11627;51.322;22.816;2023-02-10T16:26:40;1.00;42.90
22923;DHT22;11627;51.322;22.816;2023-02-10T16:29:07;1.00;44.80
22923;DHT22;11627;51.322;22.816;2023-02-10T16:31:33;1.00;48.20
22923;DHT22;11627;51.322;22.816;2023-02-10T16:33:59;1.00;49.60
22923;DHT22;11627;51.322;22.816;2023-02-10T16:36:25;1.00;48.20
22923;DHT22;11627;51.322;22.816;2023-02-10T16:38:50;1.00;51.90
22923;DHT22;11627;51.322;22.816;2023-02-10T16:41:16;1.00;52.90
22923;DHT22;11627;51.322;22.816;2023-02-10T16:43:41;0.90;53.30
22923;DHT22;11627;51.322;22.816;2023-02-10T16:46:11;1.00;52.20
22923;DHT22;11627;51.322;22.816;2023-02-10T16:48:40;1.00;50.80
22923;DHT22;11627;51.322;22.816;2023-02-10T16:51:06;1.00;58.20
22923;DHT22;11627;51.322;22.816;2023-02-10T16:53:32;1.00;50.70
22923;DHT22;11627;51.322;22.816;2023-02-10T16:55:57;1.00;51.60
22923;DHT22;11627;51.322;22.816;2023-02-10T16:58:23;1.10;51.40
22923;DHT22;11627;51.322;22.816;2023-02-10T17:00:48;1.30;53.00
22923;DHT22;11627;51.322;22.816;2023-02-10T17:03:15;1.00;52.00
22923;DHT22;11627;51.322;22.816;2023-02-10T17:05:41;1.00;53.30
22923;DHT22;11627;51.322;22.816;2023-02-10T17:08:10;1.10;51.90
22923;DHT22;11627;51.322;22.816;2023-02-10T17:10:36;1.00;54.90
22923;DHT22;11627;51.322;22.816;2023-02-10T17:13:01;1.00;53.90
22923;DHT22;11627;51.322;22.816;2023-02-10T17:15:28;1.10;53.80
22923;DHT22;11627;51.322;22.816;2023-02-10T17:17:54;1.10;53.20
22923;DHT22;11627;51.322;22.816;2023-02-10T17:20:30;1.00;53.00
22923;DHT22;11627;51.322;22.816;2023-02-10T17:22:57;1.00;53.20
22923;DHT22;11627;51.322;22.816;2023-02-10T17:25:25;1.00;55.30
22923;DHT22;11627;51.322;22.816;2023-02-10T17:27:51;1.00;59.00
22923;DHT22;11627;51.322;22.816;2023-02-10T17:30:20;1.00;59.50